createdAt,value
2023-02-07T00:00:44.727Z,50.45
2023-02-07T00:03:42.711Z,51.85
2023-02-07T00:06:37.831Z,52.73
2023-02-07T00:09:30.661Z,52.59
2023-02-07T00:12:23.501Z,53.33
2023-02-07T00:15:15.070Z,55.07
2023-02-07T00:18:07.897Z,54.81
2023-02-07T00:21:05.638Z,57.29
2023-02-07T00:23:59.549Z,59.27
2023-02-07T00:26:53.202Z,57.23
2023-02-07T00:29:46.032Z,55.43
2023-02-07T00:32:38.918Z,54.07
2023-02-07T00:35:31.663Z,52.79
2023-02-07T00:38:16.149Z,52.08
2023-02-07T00:41:09.325Z,51.94
2023-02-07T00:44:02.788Z,51.82
2023-02-07T00:46:55.585Z,51.41
2023-02-07T00:49:51.354Z,51.14
2023-02-07T00:52:44.020Z,51.36
2023-02-07T00:55:37.716Z,50.90
2023-02-07T00:58:30.936Z,50.51
2023-02-07T01:01:27.500Z,50.28
2023-02-07T01:04:20.361Z,50.12
2023-02-07T01:07:03.455Z,50.39
2023-02-07T01:09:56.867Z,50.35
2023-02-07T01:12:49.893Z,50.16
2023-02-07T01:15:46.284Z,50.24
2023-02-07T01:18:39.401Z,50.05
2023-02-07T01:21:32.443Z,49.88
2023-02-07T01:24:25.177Z,50.08
2023-02-07T01:27:17.960Z,49.03
2023-02-07T01:30:12.442Z,48.39
2023-02-07T01:33:05.355Z,51.56
2023-02-07T01:35:58.157Z,52.81
2023-02-07T01:38:50.948Z,52.88
2023-02-07T01:41:43.819Z,52.71
2023-02-07T01:45:02.881Z,51.87
2023-02-07T01:47:53.544Z,52.03
2023-02-07T01:50:37.738Z,52.20
2023-02-07T01:53:34.764Z,51.18
2023-02-07T01:56:31.273Z,50.96
2023-02-07T01:59:26.654Z,51.14
2023-02-07T02:02:22.031Z,51.80
2023-02-07T02:05:01.183Z,51.50
2023-02-07T02:07:54.011Z,51.21
2023-02-07T02:11:03.601Z,51.02
2023-02-07T02:14:06.076Z,50.63
2023-02-07T02:17:06.225Z,50.30
2023-02-07T02:20:24.854Z,49.68
2023-02-07T02:23:33.682Z,49.90
2023-02-07T02:27:05.476Z,49.97
2023-02-07T02:30:31.345Z,49.94
2023-02-07T02:33:41.233Z,49.78
2023-02-07T02:36:43.199Z,49.94
2023-02-07T02:39:42.774Z,50.50
2023-02-07T02:42:42.213Z,50.66
2023-02-07T02:45:42.101Z,50.24
2023-02-07T02:48:36.596Z,50.07
2023-02-07T02:51:31.462Z,50.09
2023-02-07T02:54:29.781Z,50.06
2023-02-07T02:57:50.721Z,49.19
2023-02-07T03:00:57.265Z,49.73
2023-02-07T03:04:03.130Z,50.99
2023-02-07T03:07:29.620Z,51.75
2023-02-07T03:10:32.229Z,55.01
2023-02-07T03:13:30.762Z,54.38
2023-02-07T03:16:28.154Z,52.14
2023-02-07T03:19:27.980Z,51.57
2023-02-07T03:22:24.345Z,52.15
2023-02-07T03:25:20.045Z,53.20
2023-02-07T03:28:05.410Z,53.95
2023-02-07T03:31:00.466Z,54.29
2023-02-07T03:34:04.729Z,55.53
2023-02-07T03:37:00.182Z,55.96
2023-02-07T03:39:53.848Z,57.73
2023-02-07T03:42:51.653Z,56.95
2023-02-07T03:45:44.973Z,55.87
2023-02-07T03:48:38.050Z,54.44
2023-02-07T03:51:23.891Z,53.21
2023-02-07T03:54:16.907Z,53.11
2023-02-07T03:57:09.889Z,53.12
2023-02-07T04:00:02.688Z,53.30
2023-02-07T04:02:55.442Z,53.91
2023-02-07T04:05:49.617Z,55.79
2023-02-07T04:08:42.975Z,55.60
2023-02-07T04:11:36.041Z,56.31
2023-02-07T04:14:27.812Z,57.27
2023-02-07T04:17:20.663Z,57.56
2023-02-07T04:19:56.195Z,57.94
2023-02-07T04:22:49.093Z,57.91
2023-02-07T04:25:41.851Z,58.15
2023-02-07T04:28:34.978Z,58.63
2023-02-07T04:31:27.770Z,58.82
2023-02-07T04:34:20.635Z,58.75
2023-02-07T04:37:13.420Z,58.83
2023-02-07T04:40:06.969Z,58.59
2023-02-07T04:42:59.722Z,58.81
2023-02-07T04:45:52.536Z,59.01
2023-02-07T04:48:45.394Z,58.76
2023-02-07T04:51:38.325Z,58.99
2023-02-07T04:54:31.219Z,59.16
2023-02-07T04:57:24.589Z,59.24
2023-02-07T05:00:19.123Z,59.50
2023-02-07T05:03:11.926Z,59.52
2023-02-07T05:06:05.010Z,59.52
2023-02-07T05:08:57.830Z,59.61
2023-02-07T05:11:50.690Z,59.50
2023-02-07T05:14:43.434Z,59.72
2023-02-07T05:17:38.640Z,59.86
2023-02-07T05:20:21.739Z,60.13
2023-02-07T05:23:15.408Z,60.29
2023-02-07T05:26:08.655Z,60.73
2023-02-07T05:29:03.102Z,61.37
2023-02-07T05:32:13.370Z,61.52
2023-02-07T05:35:06.652Z,61.44
2023-02-07T05:37:59.471Z,61.50
2023-02-07T05:40:52.321Z,61.38
2023-02-07T05:43:45.043Z,62.26
2023-02-07T05:46:37.885Z,63.01
2023-02-07T05:49:30.941Z,61.09
2023-02-07T05:52:23.493Z,60.05
2023-02-07T05:55:16.752Z,59.02
2023-02-07T05:58:09.510Z,58.09
2023-02-07T06:00:52.437Z,57.84
2023-02-07T06:03:39.115Z,57.40
2023-02-07T06:06:32.019Z,58.73
2023-02-07T06:09:25.337Z,57.92
2023-02-07T06:12:11.097Z,56.75
2023-02-07T06:15:04.886Z,56.89
2023-02-07T06:17:57.693Z,57.22
2023-02-07T06:20:53.304Z,57.04
2023-02-07T06:23:47.118Z,56.65
2023-02-07T06:26:39.958Z,56.71
2023-02-07T06:29:33.124Z,57.10
2023-02-07T06:32:26.179Z,57.16
2023-02-07T06:35:19.810Z,57.39
2023-02-07T06:38:12.696Z,57.35
2023-02-07T06:41:08.363Z,57.60
2023-02-07T06:44:01.482Z,57.40
2023-02-07T06:46:47.425Z,56.49
2023-02-07T06:49:38.962Z,55.95
2023-02-07T06:52:22.425Z,56.29
2023-02-07T06:55:09.650Z,55.52
2023-02-07T06:58:02.829Z,54.59
2023-02-07T07:00:55.931Z,54.47
2023-02-07T07:03:48.892Z,53.35
2023-02-07T07:06:41.943Z,52.92
2023-02-07T07:09:35.341Z,52.81
2023-02-07T07:12:28.331Z,53.25
2023-02-07T07:15:22.915Z,52.60
2023-02-07T07:18:16.210Z,52.38
2023-02-07T07:21:10.348Z,53.05
2023-02-07T07:24:03.222Z,53.67
2023-02-07T07:26:56.819Z,54.64
2023-02-07T07:29:49.715Z,55.25
2023-02-07T07:32:35.451Z,55.62
2023-02-07T07:35:28.844Z,55.57
2023-02-07T07:38:20.391Z,56.60
2023-02-07T07:41:13.478Z,57.21
2023-02-07T07:44:06.928Z,56.80
2023-02-07T07:47:00.235Z,57.74
2023-02-07T07:49:53.274Z,57.91
2023-02-07T07:52:46.682Z,57.73
2023-02-07T07:55:33.340Z,57.31
2023-02-07T07:58:28.209Z,57.48
2023-02-07T08:01:21.439Z,57.52
2023-02-07T08:04:04.973Z,58.72
2023-02-07T08:06:57.940Z,58.81
2023-02-07T08:09:44.126Z,57.37
2023-02-07T08:12:19.260Z,57.24
2023-02-07T08:15:14.065Z,56.86
2023-02-07T08:18:10.093Z,56.56
2023-02-07T08:20:46.196Z,56.20
2023-02-07T08:23:39.452Z,56.28
2023-02-07T08:26:17.602Z,56.07
2023-02-07T08:28:53.763Z,55.53
2023-02-07T08:31:29.729Z,54.42
2023-02-07T08:34:05.132Z,53.79
2023-02-07T08:36:39.542Z,54.62
2023-02-07T08:39:12.437Z,54.33
2023-02-07T08:41:45.418Z,53.91
2023-02-07T08:44:18.436Z,53.57
2023-02-07T08:46:53.948Z,53.24
2023-02-07T08:49:31.829Z,53.36
2023-02-07T08:52:05.095Z,53.27
2023-02-07T08:54:48.154Z,53.15
2023-02-07T08:57:23.252Z,52.96
2023-02-07T08:59:57.820Z,52.89
2023-02-07T09:02:33.632Z,52.96
2023-02-07T09:05:06.895Z,52.67
2023-02-07T09:07:39.684Z,52.31
2023-02-07T09:10:16.000Z,52.34
2023-02-07T09:12:49.102Z,52.77
2023-02-07T09:15:22.284Z,53.33
2023-02-07T09:17:54.955Z,53.71
2023-02-07T09:20:27.675Z,54.54
2023-02-07T09:23:17.740Z,55.18
2023-02-07T09:25:54.350Z,55.62
2023-02-07T09:28:27.286Z,55.87
2023-02-07T09:31:00.238Z,56.55
2023-02-07T09:33:34.815Z,57.26
2023-02-07T09:36:18.238Z,57.86
2023-02-07T09:38:52.802Z,57.85
2023-02-07T09:41:37.933Z,58.59
2023-02-07T09:44:18.942Z,58.98
2023-02-07T09:46:59.813Z,59.33
2023-02-07T09:49:38.606Z,59.26
2023-02-07T09:52:18.420Z,59.11
2023-02-07T09:54:55.230Z,59.08
2023-02-07T09:57:37.900Z,59.50
2023-02-07T10:00:24.502Z,59.69
2023-02-07T10:03:02.502Z,59.35
2023-02-07T10:05:43.404Z,59.62
2023-02-07T10:08:18.849Z,59.80
2023-02-07T10:11:01.203Z,59.71
2023-02-07T10:13:47.181Z,59.39
2023-02-07T10:16:32.539Z,59.65
2023-02-07T10:19:15.429Z,60.92
2023-02-07T10:21:58.219Z,61.19
2023-02-07T10:24:56.541Z,59.65
2023-02-07T10:27:33.860Z,58.43
2023-02-07T10:30:16.460Z,56.84
2023-02-07T10:32:52.202Z,56.41
2023-02-07T10:35:30.086Z,55.05
2023-02-07T10:38:04.057Z,54.89
2023-02-07T10:40:42.390Z,54.37
2023-02-07T10:43:23.391Z,53.88
2023-02-07T10:46:04.576Z,53.51
2023-02-07T10:48:39.596Z,53.05
2023-02-07T10:51:29.580Z,52.56
2023-02-07T10:54:09.992Z,52.78
2023-02-07T10:56:47.716Z,52.74
2023-02-07T10:59:46.674Z,52.16
2023-02-07T11:02:54.789Z,52.63
2023-02-07T11:05:34.851Z,52.53
2023-02-07T11:08:18.888Z,51.18
2023-02-07T11:10:56.247Z,49.81
2023-02-07T11:13:31.328Z,50.19
2023-02-07T11:16:08.047Z,52.34
2023-02-07T11:18:46.345Z,53.98
2023-02-07T11:21:36.916Z,55.27
2023-02-07T11:24:16.049Z,56.88
2023-02-07T11:26:58.136Z,57.28
2023-02-07T11:29:35.545Z,59.05
2023-02-07T11:32:15.001Z,60.81
2023-02-07T11:34:54.597Z,61.94
2023-02-07T11:37:34.135Z,64.23
2023-02-07T11:40:29.415Z,67.20
2023-02-07T11:43:13.906Z,64.26
2023-02-07T11:45:51.351Z,60.99
2023-02-07T11:48:27.411Z,56.17
2023-02-07T11:51:03.544Z,53.33
2023-02-07T11:53:41.086Z,53.40
2023-02-07T11:56:25.643Z,54.76
2023-02-07T11:59:01.445Z,56.42
2023-02-07T12:01:39.759Z,57.54
2023-02-07T12:04:18.527Z,58.50
2023-02-07T12:06:58.801Z,59.25
2023-02-07T12:09:42.316Z,60.05
2023-02-07T12:12:23.889Z,61.00
2023-02-07T12:15:01.705Z,61.71
2023-02-07T12:17:40.553Z,63.39
2023-02-07T12:20:23.798Z,63.36
2023-02-07T12:23:21.451Z,62.32
2023-02-07T12:26:03.258Z,61.42
2023-02-07T12:28:43.528Z,60.60
2023-02-07T12:31:25.881Z,60.20
2023-02-07T12:34:04.984Z,59.85
2023-02-07T12:36:44.045Z,59.05
2023-02-07T12:39:25.607Z,57.52
2023-02-07T12:42:24.974Z,57.26
2023-02-07T12:45:02.038Z,57.80
2023-02-07T12:47:57.418Z,58.99
2023-02-07T12:50:55.877Z,60.25
2023-02-07T12:54:01.613Z,60.35
2023-02-07T12:56:57.631Z,64.87
2023-02-07T12:59:47.169Z,66.52
2023-02-07T13:02:52.570Z,62.09
2023-02-07T13:05:52.574Z,60.44
2023-02-07T13:08:35.308Z,59.96
2023-02-07T13:11:16.704Z,59.67
2023-02-07T13:13:59.626Z,61.15
2023-02-07T13:16:42.956Z,60.54
2023-02-07T13:19:24.488Z,56.69
2023-02-07T13:22:04.273Z,54.61
2023-02-07T13:24:39.707Z,55.14
2023-02-07T13:27:18.566Z,56.53
2023-02-07T13:29:53.029Z,57.69
2023-02-07T13:32:28.590Z,59.05
2023-02-07T13:35:08.716Z,60.28
2023-02-07T13:37:53.411Z,63.30
2023-02-07T13:40:51.897Z,66.87
2023-02-07T13:43:44.079Z,64.28
2023-02-07T13:46:31.772Z,64.86
2023-02-07T13:49:30.735Z,60.34
2023-02-07T13:52:19.800Z,57.57
2023-02-07T13:55:03.854Z,56.67
2023-02-07T13:58:04.880Z,57.06
2023-02-07T14:01:20.943Z,58.15
2023-02-07T14:04:06.848Z,59.50
2023-02-07T14:07:12.035Z,60.29
2023-02-07T14:10:06.064Z,65.28
2023-02-07T14:12:54.574Z,67.16
2023-02-07T14:16:02.608Z,63.97
2023-02-07T14:18:55.802Z,65.15
2023-02-07T14:21:48.852Z,62.34
2023-02-07T14:25:15.109Z,61.21
2023-02-07T14:28:20.004Z,60.62
2023-02-07T14:31:32.517Z,61.13
2023-02-07T14:34:30.261Z,56.27
2023-02-07T14:37:41.236Z,54.02
2023-02-07T14:40:25.899Z,54.59
2023-02-07T14:43:24.961Z,56.13
2023-02-07T14:46:25.955Z,58.22
2023-02-07T14:49:21.085Z,60.30
2023-02-07T14:52:00.301Z,64.33
2023-02-07T14:54:44.296Z,68.71
2023-02-07T14:57:47.795Z,66.43
2023-02-07T15:00:47.471Z,63.82
2023-02-07T15:03:40.855Z,61.76
2023-02-07T15:06:41.148Z,56.89
2023-02-07T15:09:36.023Z,54.01
2023-02-07T15:12:30.364Z,54.93
2023-02-07T15:15:25.015Z,56.60
2023-02-07T15:18:20.699Z,57.99
2023-02-07T15:21:06.672Z,59.69
2023-02-07T15:24:04.569Z,64.18
2023-02-07T15:26:59.964Z,68.01
2023-02-07T15:29:59.660Z,66.19
2023-02-07T15:32:47.627Z,63.33
2023-02-07T15:35:24.546Z,61.62
2023-02-07T15:38:14.814Z,59.70
2023-02-07T15:41:08.640Z,56.00
2023-02-07T15:44:03.152Z,54.43
2023-02-07T15:46:58.540Z,54.97
2023-02-07T15:49:43.461Z,56.73
2023-02-07T15:52:40.543Z,58.07
2023-02-07T15:55:38.972Z,58.87
2023-02-07T15:58:37.998Z,60.44
2023-02-07T16:01:32.558Z,65.53
2023-02-07T16:04:09.632Z,68.96
2023-02-07T16:07:07.745Z,66.71
2023-02-07T16:10:15.410Z,65.25
2023-02-07T16:12:53.069Z,65.43
2023-02-07T16:15:57.547Z,62.79
2023-02-07T16:18:43.004Z,60.07
2023-02-07T16:21:38.639Z,55.36
2023-02-07T16:24:31.054Z,53.47
2023-02-07T16:27:23.946Z,54.01
2023-02-07T16:29:57.326Z,56.02
2023-02-07T16:32:50.664Z,57.21
2023-02-07T16:35:27.445Z,58.84
2023-02-07T16:38:00.575Z,60.59
2023-02-07T16:40:33.912Z,63.86
2023-02-07T16:43:08.075Z,68.59
2023-02-07T16:45:41.398Z,67.62
2023-02-07T16:48:18.318Z,65.35
2023-02-07T16:50:51.071Z,63.39
2023-02-07T16:53:23.790Z,60.93
2023-02-07T16:55:58.468Z,57.89
2023-02-07T16:58:34.855Z,55.45
2023-02-07T17:01:14.397Z,55.96
2023-02-07T17:03:58.592Z,57.25
2023-02-07T17:06:52.000Z,59.06
2023-02-07T17:09:46.611Z,63.03
2023-02-07T17:12:39.057Z,66.85
2023-02-07T17:15:33.377Z,65.79
2023-02-07T17:18:20.724Z,64.22
2023-02-07T17:20:56.978Z,61.88
2023-02-07T17:23:32.367Z,60.48
2023-02-07T17:26:31.264Z,56.82
2023-02-07T17:29:04.218Z,55.07
2023-02-07T17:31:47.675Z,55.99
2023-02-07T17:34:42.327Z,56.74
2023-02-07T17:37:35.413Z,58.00
2023-02-07T17:40:27.342Z,60.41
2023-02-07T17:43:20.666Z,64.56
2023-02-07T17:46:10.464Z,67.55
2023-02-07T17:49:04.072Z,66.57
2023-02-07T17:51:57.409Z,64.57
2023-02-07T17:54:50.642Z,63.27
2023-02-07T17:57:43.944Z,61.34
2023-02-07T18:00:39.573Z,58.06
2023-02-07T18:03:33.261Z,55.24
2023-02-07T18:06:28.880Z,55.44
2023-02-07T18:09:24.834Z,56.64
2023-02-07T18:12:17.902Z,58.25
2023-02-07T18:15:12.115Z,59.24
2023-02-07T18:17:47.386Z,62.87
2023-02-07T18:20:40.517Z,67.81
2023-02-07T18:23:24.650Z,67.32
2023-02-07T18:26:19.443Z,65.22
2023-02-07T18:29:12.572Z,63.03
2023-02-07T18:32:05.404Z,61.03
2023-02-07T18:34:49.488Z,57.20
2023-02-07T18:37:42.277Z,54.68
2023-02-07T18:40:35.479Z,55.36
2023-02-07T18:43:28.692Z,56.60
2023-02-07T18:46:22.717Z,58.22
2023-02-07T18:49:16.674Z,59.95
2023-02-07T18:52:09.769Z,64.83
2023-02-07T18:55:02.615Z,68.91
2023-02-07T18:57:57.836Z,67.24
2023-02-07T19:00:50.596Z,65.64
2023-02-07T19:03:44.876Z,62.85
2023-02-07T19:06:30.051Z,61.12
2023-02-07T19:09:23.909Z,57.45
2023-02-07T19:12:16.662Z,55.21
2023-02-07T19:15:10.739Z,55.88
2023-02-07T19:18:05.459Z,56.84
2023-02-07T19:20:50.771Z,58.47
2023-02-07T19:23:43.954Z,60.21
2023-02-07T19:26:27.098Z,64.29
2023-02-07T19:29:12.269Z,68.08
2023-02-07T19:31:55.263Z,68.15
2023-02-07T19:34:49.161Z,65.50
2023-02-07T19:37:33.068Z,63.01
2023-02-07T19:40:25.839Z,62.30
2023-02-07T19:43:01.622Z,60.79
2023-02-07T19:45:54.715Z,56.99
2023-02-07T19:48:47.912Z,54.79
2023-02-07T19:51:40.801Z,56.00
2023-02-07T19:54:33.727Z,57.79
2023-02-07T19:57:28.103Z,58.77
2023-02-07T20:00:07.116Z,60.52
2023-02-07T20:02:43.083Z,65.06
2023-02-07T20:05:18.847Z,67.24
2023-02-07T20:07:51.600Z,67.01
2023-02-07T20:10:25.039Z,66.60
2023-02-07T20:13:18.850Z,65.97
2023-02-07T20:16:14.931Z,64.77
2023-02-07T20:19:01.006Z,64.78
2023-02-07T20:21:43.715Z,64.12
2023-02-07T20:24:29.317Z,62.21
2023-02-07T20:27:22.439Z,60.69
2023-02-07T20:30:16.027Z,60.50
2023-02-07T20:33:00.651Z,57.41
2023-02-07T20:35:44.336Z,55.06
2023-02-07T20:38:19.850Z,55.45
2023-02-07T20:40:58.233Z,56.96
2023-02-07T20:43:46.045Z,58.30
2023-02-07T20:46:40.232Z,59.90
2023-02-07T20:49:16.734Z,64.22
2023-02-07T20:52:09.813Z,69.27
2023-02-07T20:55:02.747Z,66.46
2023-02-07T20:57:44.445Z,63.60
2023-02-07T21:00:37.695Z,61.35
2023-02-07T21:03:30.618Z,57.68
2023-02-07T21:06:16.954Z,55.78
2023-02-07T21:09:10.343Z,56.86
2023-02-07T21:12:04.375Z,58.28
2023-02-07T21:14:48.135Z,60.05
2023-02-07T21:17:42.005Z,64.70
2023-02-07T21:20:36.710Z,67.88
2023-02-07T21:23:30.058Z,66.04
2023-02-07T21:26:23.630Z,64.06
2023-02-07T21:29:07.924Z,62.87
2023-02-07T21:32:02.087Z,61.52
2023-02-07T21:34:34.774Z,60.87
2023-02-07T21:37:10.179Z,60.50
2023-02-07T21:40:03.474Z,60.35
2023-02-07T21:42:40.693Z,57.96
2023-02-07T21:45:23.636Z,56.69
2023-02-07T21:47:56.349Z,57.42
2023-02-07T21:50:49.164Z,58.87
2023-02-07T21:53:33.829Z,60.79
2023-02-07T21:56:29.570Z,65.73
2023-02-07T21:59:23.714Z,67.76
2023-02-07T22:02:16.806Z,66.24
2023-02-07T22:05:10.055Z,64.31
2023-02-07T22:08:03.931Z,63.34
2023-02-07T22:10:45.205Z,62.02
2023-02-07T22:13:41.267Z,61.41
2023-02-07T22:16:35.166Z,60.65
2023-02-07T22:19:29.282Z,59.88
2023-02-07T22:22:22.064Z,58.02
2023-02-07T22:25:17.005Z,56.89
2023-02-07T22:28:09.971Z,57.93
2023-02-07T22:31:09.080Z,59.41
2023-02-07T22:34:05.275Z,64.67
2023-02-07T22:36:58.598Z,67.44
2023-02-07T22:39:53.165Z,65.63
2023-02-07T22:42:46.045Z,63.47
2023-02-07T22:45:42.553Z,62.26
2023-02-07T22:48:36.161Z,61.49
2023-02-07T22:51:26.000Z,61.03
2023-02-07T22:54:20.645Z,59.83
2023-02-07T22:57:13.497Z,56.78
2023-02-07T23:00:08.607Z,55.89
2023-02-07T23:03:02.676Z,57.16
2023-02-07T23:05:55.545Z,58.73
2023-02-07T23:08:48.404Z,59.94
2023-02-07T23:11:41.333Z,64.49
2023-02-07T23:14:17.697Z,67.52
2023-02-07T23:16:59.376Z,65.21
2023-02-07T23:19:54.029Z,64.20
2023-02-07T23:22:48.759Z,66.30
2023-02-07T23:25:45.232Z,65.26
2023-02-07T23:28:40.773Z,62.87
2023-02-07T23:31:25.199Z,60.81
2023-02-07T23:34:18.158Z,56.55
2023-02-07T23:37:01.009Z,55.17
2023-02-07T23:39:53.784Z,55.79
2023-02-07T23:42:36.854Z,57.03
2023-02-07T23:45:25.095Z,58.12
2023-02-07T23:48:18.088Z,58.80
2023-02-07T23:51:11.989Z,60.40
2023-02-07T23:54:06.177Z,65.15
2023-02-07T23:56:58.905Z,67.59
2023-02-07T23:59:51.823Z,68.26
